Flight Track Log - Related Links

Times and Time Zones

All times are in EDT time to prevent confusion due to time zone crossing. See the DAL3970 flight status page for this flight to view local times or setup timezone preferences in your user account.

Time Position Orientation Groundspeed Altitude Reporting Facility
EDT Latitude Longitude Course Direction KTS MPH feet Rate Location/Type
Thu 01:39:20 PM 40.7167 -74.1500 27° Northeast 174 200 1,200  Level New York TRACON
Thu 01:40:20 PM 40.7667 -74.1167 27° Northeast 217 250 2,900 1,600 Climbing New York TRACON
Thu 01:41:20 PM 40.8333 -74.1167 360° North 285 328 4,400 2,000 Climbing New York TRACON
Thu 01:42:20 PM 40.8833 -74.1833 315° West 253 291 6,900 1,750 Climbing New York TRACON
Thu 01:43:20 PM 40.9000 -74.2667 285° West 234 269 7,900 1,400 Climbing New York TRACON
Thu 01:44:20 PM 40.9000 -74.3500 270° West 245 282 9,700 1,600 Climbing New York TRACON
Thu 01:45:20 PM 40.9000 -74.4500 270° West 265 305 11,100 1,200 Climbing New York TRACON
Thu 01:46:20 PM 40.9167 -74.5667 307° West 302 348 12,100 962 Climbing New York TRACON
Thu 01:47:06 PM 40.9375 -74.6494 288° West 314 361 12,800 1,132 Climbing New York Center
Thu 01:48:06 PM 40.9425 -74.7514 274° West 321 369 14,100 1,438 Climbing New York Center
Thu 01:49:07 PM 40.9364 -74.8692 266° West 326 375 15,700 1,289 Climbing New York Center
Thu 01:50:07 PM 40.9303 -74.9814 266° West 320 368 16,700 966 Climbing New York Center
Thu 01:51:05 PM 40.9217 -75.1017 265° West 320 368 17,600 1,068 Climbing New York Center
Thu 01:52:05 PM 40.9097 -75.2025 261° West 328 377 18,800 1,091 Climbing New York Center
Thu 01:53:06 PM 40.8822 -75.3217 253° West 328 377 19,800 984 Climbing New York Center
Thu 01:54:07 PM 40.8592 -75.4325 255° West 328 377 20,800 793 Climbing New York Center
Thu 01:55:07 PM 40.8317 -75.5486 253° West 334 384 21,400 605 Climbing New York Center
Thu 01:56:06 PM 40.8039 -75.6644 252° West 334 384 22,000 605 Climbing New York Center
Thu 01:57:06 PM 40.7761 -75.7831 253° West 339 390 22,600 595 Climbing New York Center
Thu 01:58:07 PM 40.7461 -75.8986 251° West 339 390 23,200 595 Climbing New York Center
Thu 01:59:07 PM 40.7203 -76.0144 254° West 339 390 23,800 610 Climbing New York Center
Thu 02:00:05 PM 40.6894 -76.1436 253° West 339 390 24,400 559 Climbing New York Center
Thu 02:01:05 PM 40.6778 -76.2631 263° West 339 390 24,900 492 Climbing New York Center
Thu 02:02:07 PM 40.6758 -76.3889 269° West 339 390 25,400 492 Climbing New York Center
Thu 02:03:07 PM 40.6739 -76.5172 269° West 346 398 25,900 508 Climbing New York Center
Thu 02:04:05 PM 40.6719 -76.6403 269° West 346 398 26,400 508 Climbing New York Center
Thu 02:05:05 PM 40.6700 -76.7661 269° West 346 398 26,900 545 Climbing New York Center
Thu 02:06:06 PM 40.6675 -76.8944 269° West 346 398 27,500 541 Climbing New York Center
Thu 02:07:07 PM 40.6817 -77.0217 278° West 346 398 28,000 248 Climbing New York Center
Thu 02:08:07 PM 40.6958 -77.1489 278° West 351 404 28,000  Level New York Center
Thu 02:09:05 PM 40.7117 -77.2764 279° West 357 411 28,000  Level New York Center
Thu 02:11:07 PM 40.7394 -77.5383 278° West 352 405 28,000  Level Cleveland Center
Thu 02:12:07 PM 40.7556 -77.6747 279° West 368 423 28,000  Level Cleveland Center
Thu 02:13:07 PM 40.7694 -77.8111 278° West 381 438 28,000  Level Cleveland Center
Thu 02:14:07 PM 40.7853 -77.9531 278° West 391 450 28,000  Level Cleveland Center
Thu 02:15:07 PM 40.7989 -78.0925 277° West 391 450 28,000  Level Cleveland Center
Thu 02:16:07 PM 40.8081 -78.2347 275° West 391 450 28,000  Level Cleveland Center
Thu 02:17:07 PM 40.7839 -78.3728 257° West 386 444 28,000  Level Cleveland Center
Thu 02:18:07 PM 40.7614 -78.5133 258° West 391 450 28,000  Level Cleveland Center
Thu 02:19:08 PM 40.7367 -78.6539 257° West 391 450 28,000  Level Cleveland Center
Thu 02:20:07 PM 40.7139 -78.7944 258° West 391 450 28,000  Level Cleveland Center
Thu 02:21:07 PM 40.6911 -78.9319 258° West 391 450 28,000  Level Cleveland Center
Thu 02:22:07 PM 40.6681 -79.0831 259° West 391 450 28,000  Level Cleveland Center
Thu 02:23:07 PM 40.6447 -79.2203 257° West 391 450 28,000  Level Cleveland Center
Thu 02:24:07 PM 40.6214 -79.3550 257° West 391 450 28,000  Level Cleveland Center
Thu 02:25:07 PM 40.5978 -79.4894 257° West 391 450 28,000  Level Cleveland Center
Thu 02:26:07 PM 40.5739 -79.6264 257° West 386 444 28,000  Level Cleveland Center
Thu 02:27:07 PM 40.5500 -79.7606 257° West 386 444 28,000  Level Cleveland Center
Thu 02:28:07 PM 40.5258 -79.8947 257° West 386 444 28,000  Level Cleveland Center
Thu 02:29:07 PM 40.5078 -80.0206 259° West 386 444 28,000  Level Cleveland Center
Thu 02:30:07 PM 40.4917 -80.1572 261° West 386 444 28,000  Level Cleveland Center
Thu 02:31:07 PM 40.4711 -80.2964 259° West 393 452 28,000  Level Cleveland Center
Thu 02:32:07 PM 40.4547 -80.4439 262° West 382 440 28,000  Level Cleveland Center
Thu 02:33:07 PM 40.4361 -80.5803 260° West 382 440 28,000  Level Cleveland Center
Thu 02:34:07 PM 40.4172 -80.7194 260° West 382 440 28,000  Level Cleveland Center
Thu 02:35:07 PM 40.4003 -80.8583 261° West 387 445 28,000  Level Cleveland Center
Thu 02:36:07 PM 40.3792 -80.9972 259° West 392 451 28,000  Level Cleveland Center
Thu 02:37:07 PM 40.3619 -81.1361 261° West 392 451 28,000  Level Cleveland Center
Thu 02:37:42 PM 40.3508 -81.2008 257° West 390 449 28,000  Level Indianapolis Center
Thu 02:38:44 PM 40.3311 -81.3433 260° West 392 451 28,000  Level Indianapolis Center
Thu 02:39:46 PM 40.3108 -81.4842 259° West 389 448 28,000  Level Indianapolis Center
Thu 02:40:47 PM 40.2883 -81.6489 260° West 390 449 28,000  Level Indianapolis Center
Thu 02:41:49 PM 40.2683 -81.7892 259° West 389 448 28,000  Level Indianapolis Center
Thu 02:42:51 PM 40.2475 -81.9297 259° West 390 449 28,000  Level Indianapolis Center
Thu 02:43:53 PM 40.2283 -82.0711 260° West 387 445 28,000 -387 Level Indianapolis Center
Thu 02:44:55 PM 40.2064 -82.2136 259° West 395 455 27,200 -927 Descending Indianapolis Center
Thu 02:45:56 PM 40.1850 -82.3628 259° West 408 470 26,100 -829 Descending Indianapolis Center
Thu 02:46:58 PM 40.1553 -82.5064 255° West 410 472 25,500 -726 Descending Indianapolis Center
Thu 02:48:00 PM 40.0994 -82.6319 240° Southwest 395 455 24,600 -823 Descending Indianapolis Center
Thu 02:49:02 PM 40.0453 -82.7592 241° Southwest 399 459 23,800 -780 Descending Indianapolis Center
Thu 02:50:03 PM 39.9869 -82.8992 241° Southwest 379 436 23,000 -390 Descending Indianapolis Center
Thu 02:51:05 PM 39.9364 -83.0181 241° Southwest 372 428 23,000  Level Indianapolis Center
Thu 02:52:07 PM 39.8836 -83.1408 241° Southwest 381 438 23,000  Level Indianapolis Center
Thu 02:53:09 PM 39.8303 -83.2658 241° Southwest 388 447 23,000 -829 Level Indianapolis Center
Thu 02:54:10 PM 39.7769 -83.3919 241° Southwest 387 445 21,300 -1,805 Descending Indianapolis Center
Thu 02:55:12 PM 39.7258 -83.5114 241° Southwest 372 428 19,300 -2,032 Descending Indianapolis Center
Thu 02:56:14 PM 39.6756 -83.6286 241° Southwest 361 415 17,100 -2,081 Descending Indianapolis Center
Thu 02:57:16 PM 39.6283 -83.7367 240° Southwest 345 397 15,000 -1,984 Descending Indianapolis Center
Thu 02:58:18 PM 39.5819 -83.8428 240° Southwest 337 388 13,000 -1,887 Descending Indianapolis Center
Thu 02:59:20 PM 39.5381 -83.9458 241° Southwest 326 375 11,100 -1,016 Descending Indianapolis Center
Thu 03:00:22 PM 39.4925 -84.0475 240° Southwest 323 372 10,900 -97 Descending Indianapolis Center
Thu 03:01:24 PM 39.4294 -84.1358 227° Southwest 329 379 10,900  Level Indianapolis Center
Thu 03:02:26 PM 39.3561 -84.2375 227° Southwest 331 381 10,900  Level Indianapolis Center
Thu 03:03:28 PM 39.2908 -84.3239 226° Southwest 332 382 10,900  Level Indianapolis Center
Thu 03:04:30 PM 39.2272 -84.4100 226° Southwest 331 381 10,900 -244 Level Indianapolis Center
Thu 03:05:31 PM 39.1644 -84.4942 226° Southwest 324 373 10,400 -976 Descending Indianapolis Center
Thu 03:06:33 PM 39.0922 -84.5381 205° Southwest 310 357 8,900 -1,500 Descending Indianapolis Center
Thu 03:07:35 PM 39.0083 -84.5369 179° South 301 346 7,300 -1,355 Descending Indianapolis Center
Thu 03:08:37 PM 38.9161 -84.5336 178° South 300 345 6,100 -1,258 Descending Indianapolis Center
Thu 03:09:39 PM 38.8497 -84.5806 209° Southwest 302 348 4,700 -1,355 Descending Indianapolis Center

Login

Don't have an account? Register now (free) for customized features, flight alerts, and more!